Time;durP1;ratioP1;P1;durP2;ratioP2;P2;SDS_P1;SDS_P2;PMS_P1;PMS_P2;Temp;Humidity;BMP_temperature;BMP_pressure;BME280_temperature;BME280_humidity;BME280_pressure;Samples;Min_cycle;Max_cycle;Signal;HPM_P1;HPM_P2
2022/07/24 00:01:12;;;;;;;10.48;7.40;;;;;;;25.65;54.67;99260.75;4347023;33;33829;-81
2022/07/24 00:03:40;;;;;;;11.95;8.30;;;;;;;26.04;53.43;99265.88;4333727;33;35165;-82
2022/07/24 00:06:10;;;;;;;11.85;8.00;;;;;;;25.64;54.98;99252.84;4340087;33;34173;-81
2022/07/24 00:08:40;;;;;;;10.23;8.10;;;;;;;25.88;54.71;99256.34;4346776;33;33771;-86
2022/07/24 00:11:08;;;;;;;11.12;8.65;;;;;;;25.71;55.39;99259.44;4343231;33;178226;-86
2022/07/24 00:13:37;;;;;;;11.35;8.60;;;;;;;26.10;54.62;99273.41;4346762;33;35175;-81
2022/07/24 00:16:05;;;;;;;10.18;8.18;;;;;;;25.78;56.00;99276.66;4344690;33;34575;-81
2022/07/24 00:18:33;;;;;;;11.12;8.18;;;;;;;25.63;56.58;99277.84;4333569;33;33812;-81
2022/07/24 00:21:01;;;;;;;12.93;8.70;;;;;;;25.17;58.32;99290.00;4348456;33;33960;-80
2022/07/24 00:23:29;;;;;;;14.07;7.50;;;;;;;25.05;58.97;99293.56;4346726;33;35999;-88
2022/07/24 00:25:57;;;;;;;13.02;8.55;;;;;;;24.93;59.28;99293.47;4347057;33;34568;-81
2022/07/24 00:28:25;;;;;;;11.70;8.32;;;;;;;25.08;58.66;99293.34;4346467;33;34664;-81
2022/07/24 00:30:53;;;;;;;11.88;7.37;;;;;;;25.00;58.46;99285.03;4348497;33;33863;-81
2022/07/24 00:33:21;;;;;;;9.60;7.68;;;;;;;25.20;57.76;99302.25;4345048;33;35949;-81
2022/07/24 00:35:49;;;;;;;11.23;8.13;;;;;;;24.90;58.61;99304.34;4348359;33;35233;-81
2022/07/24 00:38:17;;;;;;;11.85;7.68;;;;;;;24.90;58.78;99303.47;4346432;33;33656;-81
2022/07/24 00:40:45;;;;;;;10.35;7.55;;;;;;;24.80;58.50;99303.28;4348417;33;33912;-81
2022/07/24 00:43:14;;;;;;;17.45;7.68;;;;;;;24.65;59.22;99307.87;4346422;33;34630;-81
2022/07/24 00:45:43;;;;;;;12.77;7.80;;;;;;;24.65;59.31;99299.87;4346723;33;35193;-81
2022/07/24 00:48:11;;;;;;;12.88;7.68;;;;;;;24.87;58.92;99298.41;4346494;33;33003;-81
2022/07/24 00:50:39;;;;;;;10.60;7.25;;;;;;;24.52;59.85;99301.66;4348154;33;33703;-88
2022/07/24 00:53:07;;;;;;;12.07;7.65;;;;;;;24.57;59.82;99296.91;4346311;33;35139;-81
2022/07/24 00:55:36;;;;;;;15.27;8.60;;;;;;;24.95;58.68;99293.34;4334912;33;34613;-81
2022/07/24 00:58:04;;;;;;;13.38;8.50;;;;;;;24.64;59.50;99287.53;4346090;33;33585;-81
2022/07/24 01:00:32;;;;;;;13.85;9.15;;;;;;;25.03;58.24;99276.84;4348124;33;34211;-81
2022/07/24 01:03:00;;;;;;;12.35;8.30;;;;;;;24.84;59.18;99274.63;4328834;33;34979;-82
2022/07/24 01:05:28;;;;;;;15.10;7.75;;;;;;;24.49;60.50;99269.94;4341106;33;34356;-83
2022/07/24 01:07:55;;;;;;;13.30;8.23;;;;;;;24.64;59.92;99254.75;4345225;33;34519;-82
2022/07/24 01:10:27;;;;;;;10.02;7.22;;;;;;;24.61;60.05;99253.13;4335250;33;33900;-81
2022/07/24 01:12:55;;;;;;;14.27;7.75;;;;;;;24.70;59.20;99259.63;4346375;33;34999;-81
2022/07/24 01:15:23;;;;;;;14.07;7.12;;;;;;;24.57;59.26;99262.31;4334625;33;34590;-81
2022/07/24 01:17:51;;;;;;;13.05;7.22;;;;;;;24.69;58.38;99264.09;4346527;33;34170;-81
2022/07/24 01:20:19;;;;;;;10.02;6.22;;;;;;;24.96;57.20;99268.44;4348489;33;34540;-88
2022/07/24 01:22:47;;;;;;;9.73;6.80;;;;;;;24.64;58.08;99276.87;4347741;33;35910;-81
2022/07/24 01:25:15;;;;;;;11.40;6.80;;;;;;;24.77;57.28;99264.41;4349720;33;35402;-81
2022/07/24 01:27:43;;;;;;;8.93;6.43;;;;;;;24.83;57.04;99264.94;4346386;33;34500;-81
2022/07/24 01:30:11;;;;;;;10.25;6.97;;;;;;;25.05;56.04;99267.75;4349657;33;33806;-81
2022/07/24 01:32:39;;;;;;;7.87;6.03;;;;;;;24.59;57.20;99268.38;4347598;33;35931;-82
2022/07/24 01:35:07;;;;;;;10.52;6.60;;;;;;;24.99;56.03;99257.56;4349137;33;34476;-81
2022/07/24 01:37:35;;;;;;;11.30;5.60;;;;;;;24.74;56.58;99259.31;4344975;33;33376;-80
2022/07/24 01:40:04;;;;;;;8.20;5.70;;;;;;;24.72;56.47;99247.88;4349652;33;33532;-81
2022/07/24 01:42:31;;;;;;;8.02;5.97;;;;;;;24.73;56.13;99246.09;4347945;33;35835;-81
2022/07/24 01:44:59;;;;;;;9.27;5.90;;;;;;;24.51;56.77;99236.94;4349510;33;35241;-87
2022/07/24 01:47:27;;;;;;;10.10;5.70;;;;;;;24.82;56.04;99239.28;4346103;33;33999;-82
2022/07/24 01:49:56;;;;;;;8.30;5.72;;;;;;;24.85;55.81;99241.69;4349532;33;33920;-80
2022/07/24 01:52:25;;;;;;;10.77;6.32;;;;;;;24.83;55.68;99257.81;4347095;33;35742;-81
2022/07/24 01:54:53;;;;;;;11.00;5.22;;;;;;;24.86;55.07;99254.91;4349299;33;34415;-81
2022/07/24 01:57:21;;;;;;;8.35;6.03;;;;;;;24.79;54.78;99257.19;4349725;33;34346;-81
2022/07/24 01:59:49;;;;;;;7.80;5.60;;;;;;;25.16;54.69;99259.84;4348344;33;33327;-84
2022/07/24 02:02:17;;;;;;;9.32;6.20;;;;;;;24.83;56.89;99256.94;4347864;33;35838;-81
2022/07/24 02:04:45;;;;;;;10.45;6.05;;;;;;;25.09;56.94;99250.59;4347590;33;34381;-81
2022/07/24 02:07:13;;;;;;;8.65;6.53;;;;;;;24.86;57.71;99246.06;4340783;33;34603;-82
2022/07/24 02:09:41;;;;;;;10.50;6.18;;;;;;;24.39;59.09;99253.78;4347626;33;33647;-82
2022/07/24 02:12:09;;;;;;;8.35;6.07;;;;;;;24.32;58.74;99249.78;4336087;33;35158;-84
2022/07/24 02:14:37;;;;;;;9.65;5.55;;;;;;;24.89;57.20;99243.19;4346733;33;34616;-81
2022/07/24 02:17:05;;;;;;;7.95;6.05;;;;;;;24.93;56.41;99247.34;4349394;33;34421;-81
2022/07/24 02:19:33;;;;;;;7.82;5.68;;;;;;;24.87;55.62;99251.28;4334355;33;34881;-81
2022/07/24 02:22:01;;;;;;;7.95;5.50;;;;;;;24.76;55.41;99246.72;4349256;33;36062;-82
2022/07/24 02:24:29;;;;;;;9.10;5.72;;;;;;;24.73;56.04;99252.28;4347570;33;34566;-81
2022/07/24 02:26:57;;;;;;;16.80;5.70;;;;;;;25.12;55.08;99249.53;4333195;33;33604;-81
2022/07/24 02:29:30;;;;;;;10.48;6.10;;;;;;;24.83;55.26;99249.81;4347229;33;33920;-82
2022/07/24 02:31:59;;;;;;;9.35;5.75;;;;;;;24.76;55.78;99249.41;4336137;33;35906;-87
2022/07/24 02:34:28;;;;;;;12.80;6.40;;;;;;;25.00;55.46;99242.41;4334458;33;35261;-81
2022/07/24 02:36:55;;;;;;;9.07;5.90;;;;;;;24.57;55.89;99251.66;4349243;33;33699;-82
2022/07/24 02:39:23;;;;;;;9.10;5.95;;;;;;;25.03;55.24;99245.72;4334394;33;34266;-81
2022/07/24 02:41:51;;;;;;;7.82;5.57;;;;;;;25.34;54.61;99227.50;4347598;33;35886;-82
2022/07/24 02:44:19;;;;;;;9.50;6.43;;;;;;;24.89;56.46;99221.88;4347283;33;35300;-87
2022/07/24 02:46:47;;;;;;;10.60;6.12;;;;;;;24.71;57.45;99222.25;4347682;33;33941;-82
2022/07/24 02:49:15;;;;;;;9.38;6.78;;;;;;;24.84;57.43;99218.69;4347393;33;33918;-82
2022/07/24 02:51:43;;;;;;;8.52;5.80;;;;;;;25.63;54.85;99214.69;4349075;33;34908;-81
2022/07/24 02:54:12;;;;;;;8.70;6.05;;;;;;;24.69;58.02;99208.19;4347303;33;34418;-81
2022/07/24 02:56:39;;;;;;;10.70;6.35;;;;;;;24.29;58.37;99205.63;4347503;33;34537;-88
2022/07/24 02:59:07;;;;;;;8.93;6.12;;;;;;;23.97;59.80;99207.87;4347118;33;33578;-82
2022/07/24 03:01:35;;;;;;;9.45;5.90;;;;;;;24.28;58.17;99206.59;4349040;33;36180;-81
2022/07/24 03:04:03;;;;;;;10.50;5.97;;;;;;;24.18;58.35;99208.22;4345114;33;35373;-81
2022/07/24 03:06:31;;;;;;;10.13;5.72;;;;;;;24.45;57.30;99205.41;4340762;33;34492;-82
2022/07/24 03:09:00;;;;;;;9.80;5.97;;;;;;;24.44;57.12;99210.84;4347103;33;34041;-82
2022/07/24 03:11:28;;;;;;;11.32;5.72;;;;;;;24.21;57.58;99210.63;4347042;33;34684;-85
2022/07/24 03:13:56;;;;;;;8.80;5.30;;;;;;;24.44;56.27;99210.84;4347223;33;34427;-81
2022/07/24 03:16:24;;;;;;;10.40;6.70;;;;;;;24.33;56.49;99212.44;4348986;33;33768;-81
2022/07/24 03:18:52;;;;;;;10.73;5.90;;;;;;;24.73;55.27;99209.66;4346810;33;33593;-81
2022/07/24 03:21:19;;;;;;;10.30;6.15;;;;;;;24.39;56.08;99201.37;4348866;33;34661;-88
2022/07/24 03:24:08;;;;;;;7.97;5.32;;;;;;;24.80;54.64;99202.09;4347121;33;34160;-83
2022/07/24 03:26:35;;;;;;;8.25;5.70;;;;;;;24.95;54.18;99203.66;4347352;33;33674;-82
2022/07/24 03:29:03;;;;;;;10.57;6.32;;;;;;;24.96;54.50;99209.81;4345612;33;34757;-82
2022/07/24 03:31:32;;;;;;;9.27;6.15;;;;;;;25.26;53.65;99196.09;4348887;33;35088;-82
2022/07/24 03:34:01;;;;;;;10.90;6.65;;;;;;;25.32;54.04;99197.44;4347121;33;35320;-88
2022/07/24 03:36:29;;;;;;;13.02;6.45;;;;;;;24.75;55.41;99197.09;4348824;33;34378;-87
2022/07/24 03:38:57;;;;;;;10.35;6.22;;;;;;;24.95;54.76;99213.44;4334287;33;34418;-82
2022/07/24 03:41:25;;;;;;;6.85;5.20;;;;;;;24.67;55.68;99214.56;4346921;33;35453;-82
2022/07/24 03:43:53;;;;;;;9.27;6.07;;;;;;;25.00;54.70;99229.09;4346978;33;35248;-81
2022/07/24 03:46:21;;;;;;;7.47;5.55;;;;;;;24.54;55.86;99223.44;4348759;33;34335;-81
2022/07/24 03:48:49;;;;;;;13.77;6.45;;;;;;;24.92;54.57;99229.66;4346943;33;34141;-82
2022/07/24 03:51:16;;;;;;;13.30;5.60;;;;;;;24.49;56.14;99224.69;4348744;33;35550;-81
2022/07/24 03:53:47;;;;;;;8.35;5.62;;;;;;;24.53;56.11;99218.19;4346935;33;34505;-81
2022/07/24 03:56:16;;;;;;;8.00;6.45;;;;;;;24.68;55.92;99222.44;4335580;33;34594;-80
2022/07/24 03:58:44;;;;;;;9.07;6.10;;;;;;;24.47;56.25;99224.78;4345544;33;33895;-81
2022/07/24 04:01:12;;;;;;;7.95;6.22;;;;;;;24.35;56.99;99226.50;4347164;33;35092;-82
2022/07/24 04:03:41;;;;;;;8.85;6.10;;;;;;;24.34;56.92;99230.13;4344745;33;34413;-81
2022/07/24 04:06:09;;;;;;;8.15;5.90;;;;;;;24.40;57.01;99232.34;4348987;33;33566;-87
2022/07/24 04:08:36;;;;;;;11.95;8.02;;;;;;;24.37;56.96;99240.56;4346920;33;34017;-81
2022/07/24 04:11:07;;;;;;;11.05;6.93;;;;;;;24.45;56.79;99237.34;4348419;33;34971;-81
2022/07/24 04:13:34;;;;;;;10.82;5.90;;;;;;;24.67;57.01;99234.09;4342278;33;34539;-81
2022/07/24 04:16:09;;;;;;;8.30;5.95;;;;;;;24.74;56.59;99222.03;4345872;33;33994;-82
2022/07/24 04:18:37;;;;;;;8.98;5.75;;;;;;;25.07;55.80;99228.53;4345990;33;34777;-81
2022/07/24 04:21:06;;;;;;;9.65;6.35;;;;;;;25.15;55.30;99220.00;4346690;33;35882;-81
2022/07/24 04:23:34;;;;;;;10.05;6.05;;;;;;;24.74;56.53;99214.03;4345298;33;33324;-82
2022/07/24 04:26:03;;;;;;;8.70;6.15;;;;;;;25.23;55.61;99217.59;4346900;33;34609;-82
2022/07/24 04:28:31;;;;;;;9.10;6.25;;;;;;;25.14;55.86;99221.78;4346681;33;33598;-81
2022/07/24 04:30:59;;;;;;;8.50;5.85;;;;;;;24.46;57.50;99220.44;4348367;33;35038;-84
2022/07/24 04:33:27;;;;;;;13.10;6.00;;;;;;;24.62;57.39;99216.72;4345234;33;34359;-81
2022/07/24 04:35:55;;;;;;;10.13;6.43;;;;;;;24.86;56.69;99230.09;4348430;33;33672;-81
2022/07/24 04:38:23;;;;;;;8.18;5.62;;;;;;;25.08;55.74;99240.06;4339135;33;34109;-82
2022/07/24 04:40:51;;;;;;;8.75;6.18;;;;;;;24.85;56.79;99239.91;4344169;33;34236;-85
2022/07/24 04:43:19;;;;;;;11.23;5.65;;;;;;;24.68;57.18;99251.75;4333050;33;34386;-80
2022/07/24 04:45:47;;;;;;;9.68;6.50;;;;;;;24.78;57.08;99259.94;4348124;33;32773;-81
2022/07/24 04:48:15;;;;;;;10.07;6.75;;;;;;;24.57;57.62;99256.97;4344820;33;34825;-85
2022/07/24 04:50:43;;;;;;;10.75;7.12;;;;;;;24.42;58.35;99265.06;4347898;33;34791;-87
2022/07/24 04:53:11;;;;;;;8.32;5.57;;;;;;;24.31;58.71;99272.91;4345601;33;34394;-84
2022/07/24 04:55:39;;;;;;;10.07;6.45;;;;;;;24.58;58.11;99280.84;4310671;33;32869;-86
2022/07/24 04:58:06;;;;;;;11.00;6.50;;;;;;;24.48;58.13;99278.88;4347883;33;34705;-85
2022/07/24 05:00:35;;;;;;;8.07;6.32;;;;;;;24.79;57.70;99278.47;4346837;33;33162;-84
2022/07/24 05:03:03;;;;;;;9.52;7.15;;;;;;;24.93;57.68;99287.28;4348204;33;35121;-80
2022/07/24 05:05:30;;;;;;;13.65;6.55;;;;;;;24.37;59.61;99285.81;4345618;33;33850;-81
2022/07/24 05:07:59;;;;;;;10.05;6.60;;;;;;;25.18;57.25;99286.38;4347836;33;33866;-82
2022/07/24 05:10:27;;;;;;;9.45;6.70;;;;;;;25.10;57.52;99292.25;4345890;33;35079;-85
2022/07/24 05:12:54;;;;;;;10.88;6.68;;;;;;;25.53;56.46;99298.97;4343219;33;35144;-84
2022/07/24 05:15:30;;;;;;;7.83;6.40;;;;;;;25.56;56.61;99297.91;4344878;33;34503;-81
2022/07/24 05:17:58;;;;;;;9.70;6.85;;;;;;;24.83;58.85;99303.09;4347560;33;34390;-86
2022/07/24 05:20:26;;;;;;;9.85;6.85;;;;;;;25.35;57.49;99306.53;4345798;33;34940;-85
2022/07/24 05:22:54;;;;;;;10.98;7.43;;;;;;;25.71;57.00;99308.31;4346204;33;35115;-85
2022/07/24 05:25:22;;;;;;;11.95;6.68;;;;;;;25.49;57.21;99309.03;4345602;33;34520;-81
2022/07/24 05:27:50;;;;;;;10.15;7.55;;;;;;;25.43;57.39;99308.63;4347687;33;33834;-81
2022/07/24 05:30:18;;;;;;;12.02;7.00;;;;;;;25.34;57.92;99324.34;4344798;33;35503;-83
2022/07/24 05:32:46;;;;;;;10.38;6.90;;;;;;;25.26;58.33;99320.50;4333102;33;35281;-82
2022/07/24 05:35:14;;;;;;;10.57;7.05;;;;;;;25.49;57.53;99325.03;4345744;33;33768;-83
2022/07/24 05:37:53;;;;;;;11.07;7.07;;;;;;;25.17;58.81;99330.84;4346312;33;33834;-82
2022/07/24 05:40:20;;;;;;;11.12;7.55;;;;;;;25.12;59.15;99327.63;4345618;33;34834;-83
2022/07/24 05:42:48;;;;;;;10.45;7.65;;;;;;;25.14;58.69;99333.72;4347580;33;34914;-82
2022/07/24 05:45:16;;;;;;;10.07;7.35;;;;;;;25.39;57.98;99339.13;4332680;33;34705;-82
2022/07/24 05:47:44;;;;;;;12.75;7.53;;;;;;;25.46;58.05;99335.91;4347457;33;34851;-84
2022/07/24 05:50:13;;;;;;;10.50;7.45;;;;;;;26.15;56.65;99337.13;4343680;33;34617;-83
2022/07/24 05:52:41;;;;;;;11.43;7.03;;;;;;;26.40;55.65;99336.97;4319686;33;32579;-82
2022/07/24 05:55:09;;;;;;;9.65;7.22;;;;;;;26.97;53.71;99335.25;4345564;33;33656;-83
2022/07/24 05:57:45;;;;;;;10.50;8.18;;;;;;;26.67;54.48;99339.34;4347434;33;33937;-83
2022/07/24 06:00:18;;;;;;;11.60;8.50;;;;;;;26.62;55.05;99346.88;4345473;33;34619;-83
2022/07/24 06:02:50;;;;;;;10.30;7.75;;;;;;;26.86;55.23;99338.78;4347437;33;34636;-84
2022/07/24 06:05:18;;;;;;;11.38;8.00;;;;;;;26.92;54.23;99337.44;4347213;33;33252;-84
2022/07/24 06:07:46;;;;;;;14.10;7.93;;;;;;;26.99;53.55;99340.47;4347980;33;34727;-83
2022/07/24 06:10:14;;;;;;;11.55;7.70;;;;;;;27.23;53.11;99337.66;4341749;33;35907;-84
2022/07/24 06:12:42;;;;;;;11.73;8.40;;;;;;;27.55;52.30;99344.97;4347948;33;34603;-83
2022/07/24 06:15:11;;;;;;;15.25;8.43;;;;;;;27.58;52.09;99345.56;4347764;33;33518;-82
2022/07/24 06:17:40;;;;;;;11.18;7.97;;;;;;;27.52;52.46;99350.56;4349096;33;34427;-83
2022/07/24 06:20:12;;;;;;;13.82;8.55;;;;;;;28.18;50.54;99362.06;4347460;33;34962;-83
2022/07/24 06:22:41;;;;;;;10.55;7.93;;;;;;;27.98;50.44;99355.66;4349608;33;34727;-84
2022/07/24 06:25:16;;;;;;;14.38;7.75;;;;;;;27.96;51.20;99364.81;4344043;33;33744;-83
2022/07/24 06:27:49;;;;;;;17.98;8.88;;;;;;;27.92;50.87;99372.25;4349252;33;34538;-84
2022/07/24 06:30:21;;;;;;;15.48;8.80;;;;;;;27.83;51.20;99366.75;4347375;33;34769;-83
2022/07/24 06:32:53;;;;;;;17.40;9.55;;;;;;;28.29;50.27;99376.34;4322016;33;34197;-83
2022/07/24 06:35:21;;;;;;;13.32;9.18;;;;;;;28.37;49.68;99373.88;4334336;33;33870;-84
2022/07/24 06:37:49;;;;;;;14.73;8.52;;;;;;;28.16;51.31;99374.69;4334402;33;33956;-83
2022/07/24 06:40:18;;;;;;;12.52;8.48;;;;;;;28.69;49.26;99381.03;4334341;33;35797;-83
2022/07/24 06:42:47;;;;;;;16.70;9.15;;;;;;;28.66;49.36;99378.63;4334335;33;34402;-83
2022/07/24 06:45:15;;;;;;;17.90;8.52;;;;;;;28.87;48.67;99384.84;4334419;33;33815;-83
2022/07/24 06:47:43;;;;;;;13.40;8.38;;;;;;;29.31;47.09;99384.63;4345886;33;33551;-82
2022/07/24 06:50:12;;;;;;;15.10;8.40;;;;;;;29.08;47.88;99383.94;4347288;33;35044;-84
2022/07/24 06:52:40;;;;;;;14.40;8.73;;;;;;;29.32;46.78;99385.50;4341793;33;34464;-83
2022/07/24 06:55:08;;;;;;;14.52;9.88;;;;;;;29.20;47.77;99385.56;4334258;33;34070;-84
2022/07/24 06:57:37;;;;;;;17.02;9.02;;;;;;;29.04;47.67;99371.78;4334314;33;34708;-83
2022/07/24 07:00:08;;;;;;;11.15;8.18;;;;;;;29.36;47.68;99386.91;4320853;33;35009;-83
2022/07/24 07:02:36;;;;;;;13.82;9.25;;;;;;;29.49;46.72;99379.47;4334374;33;35305;-83
2022/07/24 07:05:05;;;;;;;13.10;9.40;;;;;;;29.73;46.08;99389.00;4321322;33;33421;-83
2022/07/24 07:07:34;;;;;;;15.18;9.32;;;;;;;29.66;46.08;99376.09;4338700;33;34623;-80
2022/07/24 07:10:04;;;;;;;11.50;8.90;;;;;;;30.23;44.91;99380.84;4347435;33;35873;-84
2022/07/24 07:12:31;;;;;;;12.40;8.55;;;;;;;30.05;45.05;99378.91;4347410;33;34936;-82
2022/07/24 07:15:08;;;;;;;11.38;8.40;;;;;;;29.49;46.24;99395.56;4346308;33;34122;-83
2022/07/24 07:17:40;;;;;;;11.43;9.00;;;;;;;29.97;45.40;99378.75;4335661;33;34283;-84
2022/07/24 07:20:11;;;;;;;11.45;8.70;;;;;;;30.15;43.88;99378.06;4347003;33;35453;-83
2022/07/24 07:22:40;;;;;;;11.80;9.30;;;;;;;30.13;44.06;99383.56;4348975;33;34377;-83
2022/07/24 07:25:08;;;;;;;11.55;8.73;;;;;;;30.13;43.06;99380.88;4347074;33;33907;-82
2022/07/24 07:27:36;;;;;;;14.25;8.55;;;;;;;30.27;42.83;99376.91;4347262;33;34910;-82
2022/07/24 07:30:05;;;;;;;13.75;9.25;;;;;;;30.51;42.28;99389.91;4333821;33;35069;-83
2022/07/24 07:32:33;;;;;;;10.80;8.80;;;;;;;30.35;42.58;99392.34;4334058;33;34534;-83
2022/07/24 07:35:02;;;;;;;12.93;8.98;;;;;;;30.77;41.66;99379.41;4346957;33;33863;-82
2022/07/24 07:37:31;;;;;;;12.80;8.30;;;;;;;30.93;41.02;99389.59;4321676;33;33700;-83
2022/07/24 07:39:59;;;;;;;15.48;8.90;;;;;;;31.13;39.21;99374.25;4339061;33;35200;-82
2022/07/24 07:42:28;;;;;;;13.38;8.63;;;;;;;30.91;40.25;99375.41;4348710;33;34485;-83
2022/07/24 07:44:56;;;;;;;12.48;8.10;;;;;;;30.65;40.83;99383.25;4345193;33;33570;-82
2022/07/24 07:47:24;;;;;;;10.93;8.60;;;;;;;30.55;40.67;99385.97;4348469;33;34002;-82
2022/07/24 07:49:52;;;;;;;12.82;8.63;;;;;;;30.47;41.29;99376.94;4346599;33;35114;-82
2022/07/24 07:52:20;;;;;;;11.90;8.60;;;;;;;30.34;40.89;99383.44;4348850;33;35354;-82
2022/07/24 07:54:49;;;;;;;10.77;8.18;;;;;;;30.31;40.46;99389.06;4333727;33;33815;-82
2022/07/24 07:57:18;;;;;;;16.37;9.32;;;;;;;30.47;40.85;99385.00;4348572;33;33971;-83
2022/07/24 07:59:45;;;;;;;12.90;8.02;;;;;;;31.20;39.88;99385.25;4346033;33;35147;-81
2022/07/24 08:02:15;;;;;;;15.82;8.00;;;;;;;31.53;38.61;99385.69;4348437;33;34452;-82
2022/07/24 08:04:43;;;;;;;10.88;7.68;;;;;;;31.10;38.14;99382.59;4344496;33;33391;-81
2022/07/24 08:07:11;;;;;;;14.32;8.32;;;;;;;31.17;38.05;99375.63;4340413;33;33864;-82
2022/07/24 08:09:41;;;;;;;10.73;8.80;;;;;;;30.66;39.50;99386.81;4346489;33;35769;-82
2022/07/24 08:12:11;;;;;;;12.52;8.52;;;;;;;30.66;39.36;99379.59;4335438;33;34677;-82
2022/07/24 08:14:43;;;;;;;10.05;7.32;;;;;;;30.41;39.82;99383.72;4346606;33;33794;-82
2022/07/24 08:17:11;;;;;;;14.50;8.40;;;;;;;30.38;38.63;99389.38;4346840;33;33997;-82
2022/07/24 08:19:39;;;;;;;10.43;7.80;;;;;;;30.50;39.77;99395.47;4346396;33;35886;-81
2022/07/24 08:22:08;;;;;;;11.82;8.13;;;;;;;30.93;38.50;99396.81;4348354;33;34174;-81
2022/07/24 08:24:35;;;;;;;11.27;7.60;;;;;;;30.34;39.19;99394.19;4346481;33;34502;-82
2022/07/24 08:27:04;;;;;;;11.77;8.07;;;;;;;29.91;40.88;99395.41;4346452;33;34154;-82
2022/07/24 08:29:31;;;;;;;13.38;8.45;;;;;;;30.33;40.78;99388.94;4346369;33;35816;-82
2022/07/24 08:32:00;;;;;;;11.52;8.60;;;;;;;29.76;42.60;99388.75;4332921;33;35430;-82
2022/07/24 08:34:28;;;;;;;11.25;8.38;;;;;;;29.79;41.03;99393.81;4344969;33;34430;-82
2022/07/24 08:36:57;;;;;;;8.82;7.50;;;;;;;30.11;41.38;99393.59;4348313;33;33519;-82
2022/07/24 08:39:25;;;;;;;9.82;7.07;;;;;;;30.27;39.83;99401.09;4333261;33;35105;-83
2022/07/24 08:41:53;;;;;;;10.75;7.87;;;;;;;29.94;40.15;99394.28;4347967;33;34140;-83
2022/07/24 08:44:21;;;;;;;12.60;8.90;;;;;;;30.29;39.99;99406.31;4346351;33;33532;-81
2022/07/24 08:46:49;;;;;;;11.30;8.18;;;;;;;30.59;38.70;99400.81;4348845;33;34408;-81
2022/07/24 08:49:19;;;;;;;12.73;7.75;;;;;;;30.21;40.57;99413.25;4343980;33;34989;-83
2022/07/24 08:51:49;;;;;;;13.95;7.85;;;;;;;30.86;38.94;99404.56;4334604;33;34466;-81
2022/07/24 08:54:17;;;;;;;10.30;7.43;;;;;;;30.85;38.63;99410.09;4332865;33;34164;-80
2022/07/24 08:56:46;;;;;;;12.27;7.50;;;;;;;30.54;38.49;99411.12;4334898;33;34639;-81
2022/07/24 08:59:18;;;;;;;13.10;7.37;;;;;;;30.60;38.48;99409.72;4346018;33;35434;-80
2022/07/24 09:01:53;;;;;;;9.50;7.22;;;;;;;30.88;37.67;99409.81;4347890;33;35200;-81
2022/07/24 09:04:42;;;;;;;12.80;8.40;;;;;;;30.76;38.41;99415.38;4329861;33;33330;-81
2022/07/24 09:07:24;;;;;;;11.02;7.47;;;;;;;30.78;38.57;99416.06;4329984;33;34047;-81
2022/07/24 09:10:00;;;;;;;10.48;7.57;;;;;;;31.01;37.12;99418.47;4333385;33;35003;-80
2022/07/24 09:12:38;;;;;;;10.05;7.60;;;;;;;31.53;36.96;99418.00;4347950;33;34564;-81
2022/07/24 09:15:27;;;;;;;9.88;7.30;;;;;;;31.92;37.13;99418.59;4346001;33;34377;-80
2022/07/24 09:17:57;;;;;;;10.15;8.30;;;;;;;31.48;37.28;99420.25;4347582;33;34676;-81
2022/07/24 09:20:28;;;;;;;18.62;8.13;;;;;;;32.28;36.02;99425.91;4344010;33;35039;-80
2022/07/24 09:22:59;;;;;;;9.80;7.72;;;;;;;32.28;35.72;99418.66;4347539;33;35286;-80
2022/07/24 09:25:34;;;;;;;;;;;;;;;33.00;34.26;99418.59;4346313;33;33535;-80
2022/07/24 09:28:03;;;;;;;11.00;7.60;;;;;;;32.80;33.82;99419.78;4347771;33;35137;-80
2022/07/24 09:30:42;;;;;;;9.00;6.65;;;;;;;32.83;32.84;99416.78;4345674;33;35985;-80
2022/07/24 09:33:10;;;;;;;9.57;6.87;;;;;;;33.11;31.65;99419.28;4334225;33;34460;-81
2022/07/24 09:35:44;;;;;;;8.20;7.03;;;;;;;33.05;32.22;99427.03;4345696;33;33615;-80
2022/07/24 09:38:16;;;;;;;12.48;7.12;;;;;;;32.60;33.34;99430.75;4345462;33;34061;-80
2022/07/24 09:40:49;;;;;;;9.65;7.60;;;;;;;32.94;32.76;99429.16;4347517;33;35148;-81
2022/07/24 09:43:31;;;;;;;9.80;8.13;;;;;;;32.54;33.07;99442.13;4348008;33;34563;-81
2022/07/24 09:46:10;;;;;;;13.15;7.45;;;;;;;32.93;33.37;99433.69;4347511;33;33625;-81
2022/07/24 09:48:40;;;;;;;8.50;6.60;;;;;;;32.93;33.78;99438.25;4349307;33;34850;-80
2022/07/24 09:51:12;;;;;;;11.18;7.22;;;;;;;32.34;33.71;99441.44;4347512;33;35916;-81
2022/07/24 09:53:45;;;;;;;7.50;6.32;;;;;;;32.17;33.03;99426.97;4346101;33;33018;-81
2022/07/24 09:56:17;;;;;;;8.05;6.80;;;;;;;32.02;32.39;99433.88;4347499;33;33818;-80
2022/07/24 09:58:46;;;;;;;8.02;6.30;;;;;;;31.88;32.97;99437.91;4349659;33;34030;-83
2022/07/24 10:01:18;;;;;;;10.50;6.65;;;;;;;32.49;32.65;99441.75;4345617;33;34513;-82
2022/07/24 10:03:48;;;;;;;10.40;6.85;;;;;;;32.31;33.44;99439.94;4347437;33;34540;-81
2022/07/24 10:06:21;;;;;;;10.27;7.15;;;;;;;32.26;32.76;99439.53;4347391;33;33689;-81
2022/07/24 10:08:50;;;;;;;7.78;6.43;;;;;;;32.76;31.73;99445.37;4328197;33;33840;-82
2022/07/24 10:11:19;;;;;;;13.20;6.32;;;;;;;32.31;32.05;99439.94;4347432;33;34936;-83
2022/07/24 10:13:47;;;;;;;9.90;6.95;;;;;;;32.45;31.45;99441.19;4347352;33;34424;-81
2022/07/24 10:16:29;;;;;;;8.60;6.60;;;;;;;32.71;31.49;99434.22;4347445;33;33675;-82
2022/07/24 10:19:04;;;;;;;7.97;5.28;;;;;;;32.94;30.99;99440.78;4348950;33;34843;-84
2022/07/24 10:21:35;;;;;;;7.12;5.35;;;;;;;32.91;28.87;99435.69;4347223;33;35052;-80
2022/07/24 10:24:03;;;;;;;6.40;5.18;;;;;;;32.48;29.91;99440.91;4347567;33;34534;-83
2022/07/24 10:26:35;;;;;;;7.55;5.97;;;;;;;32.15;30.48;99428.97;4347313;33;34361;-82
2022/07/24 10:29:11;;;;;;;6.95;5.15;;;;;;;32.22;29.84;99430.03;4349100;33;34151;-82
2022/07/24 10:31:40;;;;;;;;;;;;;;;32.45;28.61;99440.38;4347708;33;34616;-81
2022/07/24 10:34:36;;;;;;;8.82;5.60;;;;;;;32.16;29.60;99448.69;4323577;33;33419;-82
2022/07/24 10:37:10;;;;;;;8.93;5.62;;;;;;;32.36;28.91;99444.00;4347889;33;33342;-82
2022/07/24 10:40:00;;;;;;;8.40;6.20;;;;;;;32.31;28.98;99441.75;4334515;33;34083;-81
2022/07/24 10:42:28;;;;;;;11.02;6.40;;;;;;;31.73;31.00;99440.25;4334935;33;34974;-82
2022/07/24 10:45:17;;;;;;;9.90;6.07;;;;;;;32.26;30.62;99441.38;4333833;33;34165;-81
2022/07/24 10:47:45;;;;;;;9.43;6.18;;;;;;;32.03;30.12;99432.84;4349272;33;33929;-82
2022/07/24 10:50:16;;;;;;;8.13;6.00;;;;;;;32.06;30.85;99428.03;4334238;33;34889;-82
2022/07/24 10:52:44;;;;;;;12.35;6.03;;;;;;;32.20;30.00;99437.44;4334121;33;35211;-82
2022/07/24 10:55:33;;;;;;;11.80;6.20;;;;;;;32.25;30.04;99429.75;4347264;33;34503;-82
2022/07/24 10:58:10;;;;;;;8.55;6.10;;;;;;;33.03;30.33;99422.81;4347540;33;33854;-82
2022/07/24 11:00:41;;;;;;;6.82;5.40;;;;;;;32.83;31.29;99430.25;4348521;33;33865;-83
2022/07/24 11:03:24;;;;;;;7.97;6.15;;;;;;;33.12;28.05;99421.00;4335620;33;35150;-82
2022/07/24 11:06:11;;;;;;;8.05;5.28;;;;;;;32.46;29.69;99426.75;4327796;33;34212;-81
2022/07/24 11:08:40;;;;;;;9.82;5.72;;;;;;;32.35;29.21;99432.38;4319559;33;33689;-82
2022/07/24 11:11:18;;;;;;;13.32;5.62;;;;;;;31.99;28.71;99418.00;4332063;33;34765;-80
2022/07/24 11:13:51;;;;;;;7.72;5.28;;;;;;;31.88;28.68;99427.16;4306133;33;35174;-81
2022/07/24 11:16:22;;;;;;;7.62;5.12;;;;;;;31.93;29.96;99424.84;4334666;33;34680;-82
2022/07/24 11:18:49;;;;;;;11.12;6.37;;;;;;;32.35;28.55;99415.34;4335397;33;33628;-82
2022/07/24 11:21:38;;;;;;;7.65;5.07;;;;;;;33.01;28.16;99414.03;4346782;33;34746;-82
2022/07/24 11:26:56;;;;;;;6.47;4.35;;;;;;;34.44;25.05;99408.81;4346924;33;34078;-82
2022/07/24 11:29:35;;;;;;;6.07;4.78;;;;;;;34.93;25.37;99400.69;4334073;33;33744;-81
2022/07/24 11:32:05;;;;;;;9.75;5.62;;;;;;;35.00;24.16;99400.81;4334002;33;34196;-82
2022/07/24 11:34:46;;;;;;;6.25;5.12;;;;;;;33.88;26.25;99417.47;4348694;33;35786;-81
2022/07/24 11:37:14;;;;;;;5.70;4.43;;;;;;;34.58;25.52;99401.91;4346929;33;34447;-80
2022/07/24 11:39:45;;;;;;;6.57;4.80;;;;;;;34.07;26.06;99392.03;4346980;33;34282;-82
2022/07/24 11:42:15;;;;;;;7.90;4.78;;;;;;;34.58;24.87;99388.38;4346748;33;33357;-82
2022/07/24 11:44:48;;;;;;;15.43;4.75;;;;;;;34.24;23.45;99401.03;4347210;33;34605;-82